createdAt,value
2018-05-01T00:01:38.446Z,55.53
2018-05-01T00:04:05.999Z,55.63
2018-05-01T00:06:33.889Z,55.90
2018-05-01T00:09:01.444Z,55.00
2018-05-01T00:11:28.975Z,54.02
2018-05-01T00:13:56.513Z,54.71
2018-05-01T00:16:24.072Z,55.05
2018-05-01T00:18:51.805Z,55.21
2018-05-01T00:21:19.368Z,54.64
2018-05-01T00:23:47.068Z,56.33
2018-05-01T00:26:14.611Z,56.44
2018-05-01T00:28:42.201Z,57.11
2018-05-01T00:31:09.978Z,59.15
2018-05-01T00:33:37.618Z,58.07
2018-05-01T00:36:05.243Z,57.20
2018-05-01T00:38:32.854Z,58.33
2018-05-01T00:41:00.605Z,57.72
2018-05-01T00:43:28.641Z,58.44
2018-05-01T00:45:56.179Z,58.60
2018-05-01T00:48:23.873Z,57.92
2018-05-01T00:50:51.514Z,57.04
2018-05-01T00:53:19.249Z,58.04
2018-05-01T00:55:47.459Z,56.20
2018-05-01T00:58:15.141Z,55.95
2018-05-01T01:00:42.688Z,55.85
2018-05-01T01:03:10.229Z,56.73
2018-05-01T01:05:37.771Z,64.14
2018-05-01T01:08:05.291Z,64.04
2018-05-01T01:10:32.810Z,63.11
2018-05-01T01:13:00.330Z,63.19
2018-05-01T01:15:27.920Z,62.42
2018-05-01T01:17:55.548Z,62.89
2018-05-01T01:20:23.198Z,63.81
2018-05-01T01:22:51.065Z,64.20
2018-05-01T01:25:18.931Z,65.62
2018-05-01T01:27:46.638Z,67.70
2018-05-01T01:30:14.180Z,65.94
2018-05-01T01:32:42.398Z,65.62
2018-05-01T01:35:09.628Z,67.75
2018-05-01T01:37:36.635Z,68.81
2018-05-01T01:40:03.632Z,67.65
2018-05-01T01:42:30.636Z,66.43
2018-05-01T01:44:57.639Z,67.05
2018-05-01T01:47:24.741Z,68.56
2018-05-01T01:49:51.767Z,67.83
2018-05-01T01:52:18.749Z,68.72
2018-05-01T01:54:45.734Z,70.66
2018-05-01T01:57:12.807Z,69.44
2018-05-01T01:59:39.860Z,68.49
2018-05-01T02:02:06.876Z,69.99
2018-05-01T02:04:34.080Z,69.58
2018-05-01T02:07:01.350Z,69.70
2018-05-01T02:09:28.470Z,68.12
2018-05-01T02:11:55.550Z,67.01
2018-05-01T02:14:22.536Z,63.87
2018-05-01T02:16:49.509Z,64.79
2018-05-01T02:19:16.463Z,63.07
2018-05-01T02:21:43.514Z,62.48
2018-05-01T02:24:10.495Z,62.14
2018-05-01T02:26:37.730Z,61.98
2018-05-01T02:29:04.711Z,63.01
2018-05-01T02:31:31.720Z,63.04
2018-05-01T02:33:58.701Z,64.02
2018-05-01T02:36:25.745Z,63.26
2018-05-01T02:38:52.990Z,62.31
2018-05-01T02:41:20.021Z,62.75
2018-05-01T02:43:46.967Z,63.29
2018-05-01T02:46:13.950Z,62.66
2018-05-01T02:48:40.966Z,61.91
2018-05-01T02:51:07.975Z,62.12
2018-05-01T02:53:35.165Z,64.03
2018-05-01T02:56:02.176Z,66.80
2018-05-01T02:58:29.422Z,67.04
2018-05-01T03:00:56.542Z,68.79
2018-05-01T03:03:23.521Z,69.50
2018-05-01T03:05:50.594Z,70.98
2018-05-01T03:08:17.782Z,70.91
2018-05-01T03:10:44.836Z,72.81
2018-05-01T03:13:11.844Z,72.67
2018-05-01T03:15:38.985Z,71.61
2018-05-01T03:18:06.000Z,72.02
2018-05-01T03:20:33.695Z,71.49
2018-05-01T03:23:00.749Z,71.63
2018-05-01T03:25:27.937Z,70.04
2018-05-01T03:27:54.985Z,71.36
2018-05-01T03:30:21.996Z,70.95
2018-05-01T03:32:50.366Z,71.90
2018-05-01T03:35:17.359Z,71.16
2018-05-01T03:37:44.459Z,69.93
2018-05-01T03:40:11.485Z,69.55
2018-05-01T03:42:38.500Z,67.38
2018-05-01T03:45:05.966Z,67.84
2018-05-01T03:47:32.986Z,69.80
2018-05-01T03:50:00.034Z,69.72
2018-05-01T03:52:27.039Z,68.89
2018-05-01T03:54:54.199Z,67.80
2018-05-01T03:57:21.283Z,68.35
2018-05-01T03:59:48.251Z,68.41
2018-05-01T04:02:15.286Z,69.23
2018-05-01T04:04:42.286Z,67.59
2018-05-01T04:07:09.490Z,66.64
2018-05-01T04:09:36.476Z,68.03
2018-05-01T04:12:03.736Z,70.13
2018-05-01T04:14:30.725Z,68.71
2018-05-01T04:16:57.811Z,68.02
2018-05-01T04:19:24.798Z,67.71
2018-05-01T04:21:51.925Z,67.76
2018-05-01T04:24:18.904Z,68.00
2018-05-01T04:26:45.886Z,67.43
2018-05-01T04:29:13.266Z,67.43
2018-05-01T04:31:40.462Z,68.37
2018-05-01T04:34:07.614Z,68.03
2018-05-01T04:36:35.739Z,68.01
2018-05-01T04:39:02.928Z,68.78
2018-05-01T04:41:30.164Z,70.24
2018-05-01T04:43:57.160Z,70.12
2018-05-01T04:46:24.151Z,70.23
2018-05-01T04:48:51.333Z,69.34
2018-05-01T04:51:18.347Z,69.16
2018-05-01T04:53:45.350Z,69.36
2018-05-01T04:56:12.343Z,67.89
2018-05-01T04:58:39.479Z,68.62
2018-05-01T05:01:06.654Z,69.72
2018-05-01T05:03:34.119Z,68.80
2018-05-01T05:06:01.443Z,69.23
2018-05-01T05:08:28.535Z,70.36
2018-05-01T05:10:55.996Z,68.74
2018-05-01T05:13:23.422Z,68.52
2018-05-01T05:15:50.614Z,68.87
2018-05-01T05:18:17.616Z,68.89
2018-05-01T05:20:44.679Z,68.80
2018-05-01T05:23:11.816Z,69.53
2018-05-01T05:25:38.851Z,70.87
2018-05-01T05:28:05.826Z,69.50
2018-05-01T05:30:33.039Z,69.51
2018-05-01T05:33:00.011Z,69.13
2018-05-01T05:35:27.035Z,68.47
2018-05-01T05:37:54.016Z,68.21
2018-05-01T05:40:21.092Z,69.06
2018-05-01T05:42:48.198Z,68.10
2018-05-01T05:45:15.116Z,67.82
2018-05-01T05:47:42.114Z,67.94
2018-05-01T05:50:09.126Z,67.74
2018-05-01T05:52:36.201Z,67.12
2018-05-01T05:55:03.220Z,67.13
2018-05-01T05:57:30.212Z,66.44
2018-05-01T05:59:57.404Z,66.05
2018-05-01T06:02:24.589Z,65.93
2018-05-01T06:04:51.570Z,65.50
2018-05-01T06:07:18.581Z,65.71
2018-05-01T06:09:45.591Z,65.01
2018-05-01T06:12:12.611Z,65.22
2018-05-01T06:14:39.632Z,65.97
2018-05-01T06:17:06.697Z,66.32
2018-05-01T06:19:33.691Z,66.07
2018-05-01T06:22:00.761Z,67.02
2018-05-01T06:24:27.815Z,67.11
2018-05-01T06:26:54.969Z,66.92
2018-05-01T06:29:21.967Z,65.92
2018-05-01T06:31:48.967Z,65.86
2018-05-01T06:34:16.930Z,64.81
2018-05-01T06:36:43.932Z,64.57
2018-05-01T06:39:11.007Z,64.20
2018-05-01T06:41:38.046Z,63.79
2018-05-01T06:44:05.099Z,63.95
2018-05-01T06:46:32.954Z,64.13
2018-05-01T06:48:59.947Z,63.67
2018-05-01T06:51:26.986Z,63.86
2018-05-01T06:53:54.065Z,64.29
2018-05-01T06:56:21.066Z,63.70
2018-05-01T06:58:48.064Z,63.18
2018-05-01T07:01:15.073Z,63.77
2018-05-01T07:03:42.092Z,64.39
2018-05-01T07:06:09.073Z,64.23
2018-05-01T07:08:36.221Z,64.42
2018-05-01T07:11:03.221Z,64.60
2018-05-01T07:13:30.924Z,64.61
2018-05-01T07:15:58.162Z,64.11
2018-05-01T07:18:25.223Z,64.60
2018-05-01T07:20:52.525Z,64.99
2018-05-01T07:23:19.621Z,64.24
2018-05-01T07:25:46.620Z,63.88
2018-05-01T07:28:13.621Z,63.49
2018-05-01T07:30:40.652Z,64.33
2018-05-01T07:33:07.642Z,64.43
2018-05-01T07:35:34.860Z,63.53
2018-05-01T07:38:02.042Z,62.57
2018-05-01T07:40:29.055Z,62.97
2018-05-01T07:42:56.365Z,62.14
2018-05-01T07:45:23.405Z,62.17
2018-05-01T07:47:50.421Z,62.08
2018-05-01T07:50:17.421Z,62.16
2018-05-01T07:52:45.355Z,62.35
2018-05-01T07:55:12.515Z,62.48
2018-05-01T07:57:40.145Z,63.30
2018-05-01T08:00:07.182Z,62.84
2018-05-01T08:02:34.191Z,64.21
2018-05-01T08:05:01.246Z,64.38
2018-05-01T08:07:28.627Z,63.10
2018-05-01T08:09:55.665Z,63.21
2018-05-01T08:12:22.722Z,63.26
2018-05-01T08:14:49.746Z,63.97
2018-05-01T08:17:16.732Z,62.78
2018-05-01T08:19:43.942Z,62.41
2018-05-01T08:22:11.113Z,61.07
2018-05-01T08:24:38.352Z,60.55
2018-05-01T08:27:05.497Z,59.62
2018-05-01T08:29:32.583Z,59.11
2018-05-01T08:31:59.729Z,59.70
2018-05-01T08:34:27.130Z,57.42
2018-05-01T08:36:54.213Z,55.91
2018-05-01T08:39:21.218Z,55.99
2018-05-01T08:41:48.310Z,56.45
2018-05-01T08:44:15.386Z,55.48
2018-05-01T08:46:42.536Z,56.22
2018-05-01T08:49:10.008Z,56.52
2018-05-01T08:51:37.011Z,56.75
2018-05-01T08:54:04.294Z,56.80
2018-05-01T08:56:31.441Z,56.37
2018-05-01T08:58:58.476Z,56.89
2018-05-01T09:01:25.625Z,54.80
2018-05-01T09:03:52.770Z,55.02
2018-05-01T09:06:19.908Z,54.90
2018-05-01T09:08:47.007Z,55.24
2018-05-01T09:11:14.431Z,54.38
2018-05-01T09:13:41.565Z,54.86
2018-05-01T09:16:08.652Z,54.42
2018-05-01T09:18:35.661Z,53.53
2018-05-01T09:21:03.065Z,53.59
2018-05-01T09:23:30.166Z,53.89
2018-05-01T09:25:57.211Z,52.08
2018-05-01T09:28:24.373Z,53.26
2018-05-01T09:30:51.425Z,52.52
2018-05-01T09:33:18.491Z,51.16
2018-05-01T09:35:45.631Z,49.30
2018-05-01T09:38:12.756Z,47.34
2018-05-01T09:40:39.750Z,47.70
2018-05-01T09:43:06.912Z,47.59
2018-05-01T09:45:34.211Z,46.51
2018-05-01T09:48:01.415Z,47.46
2018-05-01T09:50:28.843Z,47.88
2018-05-01T09:52:56.436Z,47.90
2018-05-01T09:55:23.972Z,45.98
2018-05-01T09:57:51.597Z,44.85
2018-05-01T10:00:24.733Z,43.92
2018-05-01T10:02:52.273Z,43.16
2018-05-01T10:05:19.935Z,44.49
2018-05-01T10:07:50.397Z,45.28
2018-05-01T10:10:18.207Z,43.90
2018-05-01T10:12:45.881Z,43.70
2018-05-01T10:15:13.578Z,44.38
2018-05-01T10:17:41.207Z,43.38
2018-05-01T10:20:08.826Z,41.40
2018-05-01T10:22:36.398Z,39.96
2018-05-01T10:25:04.068Z,39.17
2018-05-01T10:27:31.783Z,39.33
2018-05-01T10:30:00.354Z,39.58
2018-05-01T10:32:28.282Z,37.82
2018-05-01T10:34:55.833Z,38.25
2018-05-01T10:37:23.608Z,38.80
2018-05-01T10:39:51.310Z,37.01
2018-05-01T10:42:19.137Z,36.41
2018-05-01T10:44:46.780Z,37.56
2018-05-01T10:47:14.916Z,38.11
2018-05-01T10:49:42.562Z,37.24
2018-05-01T10:52:10.227Z,37.09
2018-05-01T10:54:38.056Z,37.87
2018-05-01T10:57:05.707Z,38.13
2018-05-01T10:59:33.347Z,34.48
2018-05-01T11:02:01.168Z,32.02
2018-05-01T11:04:28.818Z,33.58
2018-05-01T11:06:56.426Z,34.65
2018-05-01T11:09:24.057Z,36.73
2018-05-01T11:11:51.689Z,37.01
2018-05-01T11:14:19.278Z,38.31
2018-05-01T11:16:48.032Z,38.66
2018-05-01T11:19:16.017Z,39.33
2018-05-01T11:21:45.054Z,39.76
2018-05-01T11:24:12.871Z,40.31
2018-05-01T11:26:40.615Z,40.41
2018-05-01T11:29:08.361Z,38.42
2018-05-01T11:31:35.940Z,40.42
2018-05-01T11:34:03.809Z,41.42
2018-05-01T11:36:31.612Z,41.45
2018-05-01T11:38:59.353Z,41.86
2018-05-01T11:41:26.975Z,40.42
2018-05-01T11:43:54.530Z,38.96
2018-05-01T11:46:22.218Z,36.25
2018-05-01T11:48:49.763Z,35.70
2018-05-01T11:51:18.634Z,36.32
2018-05-01T11:53:46.496Z,37.17
2018-05-01T11:56:14.077Z,37.79
2018-05-01T11:58:41.612Z,35.91
2018-05-01T12:01:09.273Z,35.60
2018-05-01T12:03:37.002Z,35.45
2018-05-01T12:06:05.042Z,37.58
2018-05-01T12:08:32.693Z,35.63
2018-05-01T12:11:00.273Z,35.95
2018-05-01T12:13:28.002Z,36.61
2018-05-01T12:15:55.602Z,35.53
2018-05-01T12:18:23.543Z,36.36
2018-05-01T12:20:51.339Z,33.68
2018-05-01T12:23:18.867Z,30.31
2018-05-01T12:25:46.499Z,29.56
2018-05-01T12:28:14.066Z,32.49
2018-05-01T12:30:41.895Z,34.15
2018-05-01T12:33:10.032Z,35.42
2018-05-01T12:35:37.554Z,36.83
2018-05-01T12:38:05.160Z,37.60
2018-05-01T12:40:32.888Z,36.20
2018-05-01T12:43:00.536Z,30.12
2018-05-01T12:45:28.370Z,23.84
2018-05-01T12:47:55.909Z,20.58
2018-05-01T12:50:23.509Z,21.52
2018-05-01T12:52:51.131Z,19.44
2018-05-01T12:55:18.687Z,17.93
2018-05-01T12:57:46.221Z,20.52
2018-05-01T13:00:13.927Z,19.77
2018-05-01T13:02:41.717Z,19.85
2018-05-01T13:05:09.559Z,22.08
2018-05-01T13:07:38.542Z,21.66
2018-05-01T13:10:06.152Z,21.18
2018-05-01T13:12:33.936Z,23.93
2018-05-01T13:15:01.547Z,26.38
2018-05-01T13:17:29.449Z,29.66
2018-05-01T13:19:57.317Z,31.74
2018-05-01T13:22:24.905Z,33.04
2018-05-01T13:24:52.504Z,32.51
2018-05-01T13:27:20.211Z,31.73
2018-05-01T13:29:47.928Z,26.60
2018-05-01T13:32:15.924Z,24.16
2018-05-01T13:34:43.674Z,23.74
2018-05-01T13:37:11.323Z,26.33
2018-05-01T13:39:39.207Z,24.99
2018-05-01T13:42:07.269Z,24.04
2018-05-01T13:44:34.922Z,22.66
2018-05-01T13:47:02.784Z,22.64
2018-05-01T13:49:31.704Z,23.77
2018-05-01T13:51:59.389Z,25.68
2018-05-01T13:54:27.160Z,27.53
2018-05-01T13:56:54.745Z,27.45
2018-05-01T13:59:22.419Z,27.62
2018-05-01T14:01:50.222Z,28.36
2018-05-01T14:04:17.875Z,29.28
2018-05-01T14:06:45.399Z,30.68
2018-05-01T14:09:13.055Z,32.15
2018-05-01T14:11:40.657Z,32.28
2018-05-01T14:14:08.213Z,32.72
2018-05-01T14:16:35.730Z,33.82
2018-05-01T14:19:03.464Z,34.24
2018-05-01T14:21:31.145Z,35.61
2018-05-01T14:23:58.714Z,36.69
2018-05-01T14:26:26.428Z,36.09
2018-05-01T14:28:54.421Z,35.78
2018-05-01T14:31:21.949Z,36.54
2018-05-01T14:33:49.594Z,36.57
2018-05-01T14:36:17.189Z,35.89
2018-05-01T14:38:44.728Z,35.63
2018-05-01T14:41:12.284Z,35.21
2018-05-01T14:43:39.898Z,36.48
2018-05-01T14:46:07.967Z,37.04
2018-05-01T14:48:35.533Z,37.47
2018-05-01T14:51:03.129Z,38.00
2018-05-01T14:53:30.806Z,38.29
2018-05-01T14:55:59.350Z,38.28
2018-05-01T14:58:27.234Z,39.19
2018-05-01T15:00:55.039Z,40.08
2018-05-01T15:03:22.720Z,39.59
2018-05-01T15:05:50.567Z,38.84
2018-05-01T15:08:18.230Z,38.58
2018-05-01T15:10:45.828Z,39.44
2018-05-01T15:13:13.525Z,38.89
2018-05-01T15:15:41.303Z,38.21
2018-05-01T15:18:08.869Z,38.62
2018-05-01T15:20:36.571Z,37.31
2018-05-01T15:23:04.156Z,37.45
2018-05-01T15:25:31.812Z,36.91
2018-05-01T15:27:59.325Z,36.15
2018-05-01T15:30:27.293Z,36.35
2018-05-01T15:32:55.230Z,37.63
2018-05-01T15:35:22.839Z,36.43
2018-05-01T15:37:50.649Z,36.58
2018-05-01T15:40:18.225Z,36.99
2018-05-01T15:42:45.789Z,37.34
2018-05-01T15:45:13.587Z,37.55
2018-05-01T15:47:41.110Z,39.27
2018-05-01T15:50:08.991Z,37.85
2018-05-01T15:52:36.641Z,37.82
2018-05-01T15:55:04.285Z,38.25
2018-05-01T15:57:32.005Z,38.43
2018-05-01T16:00:00.065Z,39.37
2018-05-01T16:02:27.604Z,38.96
2018-05-01T16:04:56.122Z,38.26
2018-05-01T16:07:23.874Z,38.42
2018-05-01T16:09:51.535Z,37.98
2018-05-01T16:12:19.136Z,37.85
2018-05-01T16:14:46.877Z,38.00
2018-05-01T16:17:14.421Z,37.74
2018-05-01T16:19:42.497Z,38.06
2018-05-01T16:22:10.442Z,38.83
2018-05-01T16:24:38.306Z,38.59
2018-05-01T16:27:06.267Z,39.20
2018-05-01T16:29:34.970Z,39.41
2018-05-01T16:32:03.270Z,39.95
2018-05-01T16:34:31.071Z,40.06
2018-05-01T16:36:58.625Z,39.90
2018-05-01T16:39:26.495Z,40.26
2018-05-01T16:41:54.417Z,40.05
2018-05-01T16:44:22.152Z,40.04
2018-05-01T16:46:49.841Z,41.75
2018-05-01T16:49:17.561Z,41.31
2018-05-01T16:51:45.107Z,41.81
2018-05-01T16:54:12.769Z,41.52
2018-05-01T16:56:40.340Z,40.96
2018-05-01T16:59:08.116Z,40.65
2018-05-01T17:01:36.038Z,41.57
2018-05-01T17:04:03.675Z,43.29
2018-05-01T17:06:31.270Z,41.27
2018-05-01T17:08:59.892Z,40.96
2018-05-01T17:11:28.051Z,41.12
2018-05-01T17:13:55.790Z,41.20
2018-05-01T17:16:23.406Z,41.45
2018-05-01T17:18:51.010Z,40.74
2018-05-01T17:21:19.694Z,41.27
2018-05-01T17:23:47.405Z,42.10
2018-05-01T17:26:14.936Z,42.25
2018-05-01T17:28:42.485Z,42.96
2018-05-01T17:31:10.185Z,43.96
2018-05-01T17:33:37.871Z,43.08
2018-05-01T17:36:05.442Z,43.46
2018-05-01T17:38:33.040Z,43.99
2018-05-01T17:41:00.577Z,45.06
2018-05-01T17:43:28.296Z,45.33
2018-05-01T17:45:56.960Z,45.51
2018-05-01T17:48:24.589Z,46.37
2018-05-01T17:50:52.119Z,48.41
2018-05-01T17:53:19.251Z,51.73
2018-05-01T17:55:46.399Z,51.84
2018-05-01T17:58:13.951Z,51.16
2018-05-01T18:00:41.260Z,51.83
2018-05-01T18:03:08.956Z,52.29
2018-05-01T18:05:36.087Z,51.47
2018-05-01T18:08:03.447Z,52.49
2018-05-01T18:10:30.617Z,53.30
2018-05-01T18:12:57.702Z,53.50
2018-05-01T18:15:25.010Z,52.70
2018-05-01T18:17:52.176Z,54.25
2018-05-01T18:20:19.302Z,56.03
2018-05-01T18:22:46.382Z,51.88
2018-05-01T18:25:13.635Z,52.01
2018-05-01T18:27:40.771Z,51.92
2018-05-01T18:30:07.970Z,56.39
2018-05-01T18:32:35.483Z,56.95
2018-05-01T18:35:03.477Z,55.45
2018-05-01T18:37:30.701Z,55.34
2018-05-01T18:39:57.806Z,54.84
2018-05-01T18:42:24.922Z,55.47
2018-05-01T18:44:52.190Z,57.80
2018-05-01T18:47:19.445Z,57.83
2018-05-01T18:49:46.649Z,57.15
2018-05-01T18:52:13.760Z,58.30
2018-05-01T18:54:40.952Z,58.40
2018-05-01T18:57:08.101Z,60.61
2018-05-01T18:59:35.228Z,61.07
2018-05-01T19:02:03.785Z,62.95
2018-05-01T19:04:31.945Z,62.29
2018-05-01T19:07:00.126Z,63.15
2018-05-01T19:09:28.180Z,63.52
2018-05-01T19:11:55.894Z,62.78
2018-05-01T19:14:23.551Z,64.11
2018-05-01T19:16:52.057Z,64.91
2018-05-01T19:19:20.007Z,65.26
2018-05-01T19:21:47.370Z,65.24
2018-05-01T19:24:14.737Z,64.95
2018-05-01T19:26:42.560Z,64.83
2018-05-01T19:29:09.882Z,64.99
2018-05-01T19:31:37.766Z,67.54
2018-05-01T19:34:05.765Z,66.28
2018-05-01T19:36:32.875Z,65.00
2018-05-01T19:39:00.097Z,63.82
2018-05-01T19:41:27.231Z,64.89
2018-05-01T19:43:55.171Z,63.38
2018-05-01T19:46:22.776Z,64.41
2018-05-01T19:48:50.149Z,63.67
2018-05-01T19:51:17.296Z,63.78
2018-05-01T19:53:44.430Z,64.15
2018-05-01T19:56:11.546Z,64.71
2018-05-01T19:58:38.949Z,62.82
2018-05-01T20:01:06.103Z,61.56
2018-05-01T20:03:33.312Z,61.84
2018-05-01T20:06:00.562Z,62.61
2018-05-01T20:08:27.846Z,63.39
2018-05-01T20:10:55.141Z,66.23
2018-05-01T20:13:22.551Z,65.77
2018-05-01T20:15:50.021Z,65.66
2018-05-01T20:18:17.328Z,63.01
2018-05-01T20:20:44.681Z,65.05
2018-05-01T20:23:11.967Z,66.00
2018-05-01T20:25:39.146Z,64.48
2018-05-01T20:28:06.456Z,67.03
2018-05-01T20:30:34.735Z,65.28
2018-05-01T20:33:02.624Z,66.39
2018-05-01T20:35:29.872Z,67.62
2018-05-01T20:37:57.017Z,68.73
2018-05-01T20:40:24.169Z,67.18
2018-05-01T20:42:51.309Z,68.95
2018-05-01T20:45:18.508Z,69.13
2018-05-01T20:47:45.588Z,70.61
2018-05-01T20:50:12.727Z,70.02
2018-05-01T20:52:39.902Z,70.72
2018-05-01T20:55:07.072Z,70.84
2018-05-01T20:57:34.422Z,70.32
2018-05-01T21:00:01.541Z,71.90
2018-05-01T21:02:28.626Z,72.60
2018-05-01T21:04:55.748Z,72.52
2018-05-01T21:07:22.864Z,72.24
2018-05-01T21:09:49.977Z,72.32
2018-05-01T21:12:17.296Z,72.66
2018-05-01T21:15:17.951Z,72.73
2018-05-01T21:17:45.118Z,72.39
2018-05-01T21:20:12.281Z,74.82
2018-05-01T21:22:39.521Z,75.65
2018-05-01T21:25:06.725Z,75.96
2018-05-01T21:27:33.791Z,75.96
2018-05-01T21:30:00.969Z,77.54
2018-05-01T21:32:28.061Z,77.21
2018-05-01T21:34:55.147Z,76.40
2018-05-01T21:37:22.241Z,76.22
2018-05-01T21:39:49.413Z,76.72
2018-05-01T21:42:16.607Z,76.97
2018-05-01T21:44:43.817Z,76.37
2018-05-01T21:47:10.995Z,77.33
2018-05-01T21:49:38.191Z,78.07
2018-05-01T21:52:05.723Z,77.97
2018-05-01T21:54:33.249Z,78.28
2018-05-01T21:57:00.303Z,77.99
2018-05-01T21:59:27.936Z,77.49
2018-05-01T22:01:55.523Z,78.94
2018-05-01T22:04:22.643Z,79.15
2018-05-01T22:06:50.407Z,79.86
2018-05-01T22:09:17.515Z,80.54
2018-05-01T22:11:44.666Z,80.12
2018-05-01T22:14:11.787Z,80.80
2018-05-01T22:16:39.130Z,81.57
2018-05-01T22:19:06.897Z,81.08
2018-05-01T22:21:34.527Z,81.32
2018-05-01T22:24:02.193Z,81.43
2018-05-01T22:26:29.862Z,82.29
2018-05-01T22:28:56.946Z,82.75
2018-05-01T22:31:24.666Z,84.29
2018-05-01T22:33:51.982Z,84.65
2018-05-01T22:36:19.317Z,84.38
2018-05-01T22:38:46.498Z,84.06
2018-05-01T22:41:13.637Z,83.11
2018-05-01T22:43:40.826Z,83.40
2018-05-01T22:46:08.487Z,82.77
2018-05-01T22:48:36.184Z,82.17
2018-05-01T22:51:03.811Z,81.97
2018-05-01T22:53:31.502Z,82.65
2018-05-01T22:55:58.612Z,82.46
2018-05-01T22:58:25.838Z,82.55
2018-05-01T23:00:52.903Z,82.70
2018-05-01T23:03:20.623Z,83.49
2018-05-01T23:05:47.919Z,83.70
2018-05-01T23:08:15.152Z,83.98
2018-05-01T23:10:42.224Z,83.79
2018-05-01T23:13:09.422Z,83.57
2018-05-01T23:15:36.487Z,83.79
2018-05-01T23:18:03.747Z,84.10
2018-05-01T23:20:30.816Z,84.21
2018-05-01T23:22:57.983Z,84.31
2018-05-01T23:25:25.146Z,83.87
2018-05-01T23:27:52.336Z,84.12
2018-05-01T23:30:19.539Z,84.84
2018-05-01T23:32:46.893Z,84.86
2018-05-01T23:35:14.461Z,85.63
2018-05-01T23:37:41.549Z,85.29
2018-05-01T23:40:08.701Z,85.17
2018-05-01T23:42:35.978Z,85.60
2018-05-01T23:45:03.120Z,85.57
2018-05-01T23:47:30.297Z,85.39
2018-05-01T23:49:57.402Z,84.99
2018-05-01T23:52:24.521Z,84.45
2018-05-01T23:54:51.774Z,84.15
2018-05-01T23:57:19.366Z,84.78
2018-05-01T23:59:47.022Z,85.06
